Shipu, China
Current Conditions -  °F | °C
As of 5:00 AM on Thursday 27 Nov 2014 (Local Time) from ZSNB Reporting Station
Haze Haze  
Wind Chill: 46°   Ceiling: Unl
Heat Index: 48°   Visibility: 1.8mi
Dew Point: 46°   Wind: 4mph
Humidity: 93%   Direction: 140°SE
Pressure: 30.12"   Gusts: NA
Location:  29.2°N, 121.95°E
Report Text: ZSNB 262100Z 14002MPS 3000 BR NSC 09/08 Q1020 BECMG TL22302000
Loading
Personal Weather Stations






























Interactive Weather Map New forecast layout! Learn more

10-Day Weather Forecast

Advertisements
Track Severe Weather on mobile